Terminal Aerodrome Forecast
Issued by NWS

Home | Current Version | Previous Version | Text Only | Print | Product List | Glossary On
Versions: 1 2 3 4 5 6 7 8 9 10 11 12 13 14 15 16 17 18 19 20 21 22 23 24 25 26 27 28 29 30 31 32 33 34 35 36
935
FTUS45 KBOU 202232 AAB
TAFAPA
TAF AMD
KAPA 202232Z 2023/2118 VRB05KT P6SM -TSRA BKN090CB BKN120 BKN220
     FM202330 23008KT P6SM SCT090 BKN220
     FM210500 20011KT P6SM FEW120 SCT220
     FM211600 02010KT P6SM FEW080 SCT140=

USA.gov is the U.S. government's official web portal to all federal, state and local government web resources and services.